createdAt,value
2018-08-30T00:00:23.120Z,17.57
2018-08-30T00:02:50.309Z,17.46
2018-08-30T00:05:17.739Z,17.33
2018-08-30T00:07:44.941Z,17.19
2018-08-30T00:10:12.098Z,17.10
2018-08-30T00:12:39.359Z,17.04
2018-08-30T00:15:06.617Z,16.99
2018-08-30T00:17:33.827Z,16.95
2018-08-30T00:20:01.011Z,17.05
2018-08-30T00:22:28.860Z,16.98
2018-08-30T00:24:56.105Z,16.95
2018-08-30T00:27:23.352Z,16.84
2018-08-30T00:29:50.686Z,16.83
2018-08-30T00:32:18.873Z,16.80
2018-08-30T00:34:46.040Z,16.70
2018-08-30T00:37:13.151Z,16.78
2018-08-30T00:39:41.307Z,16.66
2018-08-30T00:42:08.539Z,16.57
2018-08-30T00:44:35.640Z,16.46
2018-08-30T00:47:02.837Z,16.41
2018-08-30T00:49:30.013Z,16.43
2018-08-30T00:51:57.190Z,16.39
2018-08-30T00:54:24.409Z,16.31
2018-08-30T00:56:51.718Z,16.28
2018-08-30T00:59:18.835Z,16.27
2018-08-30T01:01:45.956Z,16.25
2018-08-30T01:04:13.166Z,16.29
2018-08-30T01:06:40.375Z,16.37
2018-08-30T01:09:07.521Z,16.41
2018-08-30T01:11:34.740Z,16.46
2018-08-30T01:14:01.862Z,16.47
2018-08-30T01:16:29.083Z,16.49
2018-08-30T01:18:56.328Z,16.49
2018-08-30T01:21:23.422Z,16.45
2018-08-30T01:23:50.553Z,16.44
2018-08-30T01:26:18.216Z,16.37
2018-08-30T01:28:45.416Z,16.28
2018-08-30T01:31:12.659Z,16.27
2018-08-30T01:33:39.845Z,16.18
2018-08-30T01:36:07.011Z,16.10
2018-08-30T01:38:34.146Z,16.04
2018-08-30T01:41:01.360Z,16.02
2018-08-30T01:43:28.580Z,15.99
2018-08-30T01:45:55.712Z,15.92
2018-08-30T01:48:22.893Z,15.87
2018-08-30T01:50:50.005Z,15.81
2018-08-30T01:53:17.171Z,15.78
2018-08-30T01:55:44.468Z,15.72
2018-08-30T01:58:11.586Z,15.65
2018-08-30T02:00:38.699Z,15.63
2018-08-30T02:03:05.886Z,15.71
2018-08-30T02:05:33.121Z,15.69
2018-08-30T02:08:00.324Z,15.72
2018-08-30T02:10:27.468Z,15.74
2018-08-30T02:12:54.660Z,15.76
2018-08-30T02:15:21.801Z,15.73
2018-08-30T02:17:49.022Z,15.71
2018-08-30T02:20:16.243Z,15.68
2018-08-30T02:22:43.355Z,15.64
2018-08-30T02:25:10.529Z,15.63
2018-08-30T02:27:37.652Z,15.74
2018-08-30T02:30:05.179Z,15.74
2018-08-30T02:32:32.464Z,15.77
2018-08-30T02:34:59.608Z,15.86
2018-08-30T02:37:26.730Z,15.91
2018-08-30T02:39:53.893Z,15.93
2018-08-30T02:42:21.110Z,15.96
2018-08-30T02:44:48.301Z,15.95
2018-08-30T02:47:15.468Z,15.87
2018-08-30T02:49:43.729Z,15.76
2018-08-30T02:52:10.871Z,15.70
2018-08-30T02:54:38.079Z,15.57
2018-08-30T02:57:05.376Z,15.48
2018-08-30T02:59:32.538Z,15.38
2018-08-30T03:01:59.778Z,15.31
2018-08-30T03:04:26.932Z,15.24
2018-08-30T03:06:54.097Z,15.18
2018-08-30T03:09:21.379Z,15.13
2018-08-30T03:11:48.523Z,15.09
2018-08-30T03:14:15.655Z,15.11
2018-08-30T03:16:42.851Z,15.19
2018-08-30T03:19:10.025Z,15.27
2018-08-30T03:21:37.240Z,15.31
2018-08-30T03:24:04.450Z,15.23
2018-08-30T03:26:31.584Z,15.20
2018-08-30T03:28:58.744Z,15.10
2018-08-30T03:31:25.982Z,15.08
2018-08-30T03:33:53.172Z,15.01
2018-08-30T03:36:20.297Z,14.95
2018-08-30T03:38:47.476Z,14.92
2018-08-30T03:41:14.596Z,14.91
2018-08-30T03:43:41.731Z,14.90
2018-08-30T03:46:09.013Z,14.95
2018-08-30T03:48:36.144Z,14.96
2018-08-30T03:51:03.379Z,15.08
2018-08-30T03:53:30.548Z,15.17
2018-08-30T03:55:57.736Z,15.20
2018-08-30T03:58:24.993Z,15.29
2018-08-30T04:00:52.172Z,15.31
2018-08-30T04:03:19.312Z,15.29
2018-08-30T04:05:46.408Z,15.36
2018-08-30T04:08:13.646Z,15.37
2018-08-30T04:10:40.876Z,15.29
2018-08-30T04:13:08.014Z,15.36
2018-08-30T04:15:35.176Z,15.42
2018-08-30T04:18:02.319Z,15.43
2018-08-30T04:20:29.583Z,15.43
2018-08-30T04:22:56.905Z,15.41
2018-08-30T04:25:24.095Z,15.43
2018-08-30T04:27:51.411Z,15.43
2018-08-30T04:30:18.595Z,15.47
2018-08-30T04:32:45.776Z,15.48
2018-08-30T04:35:12.963Z,15.50
2018-08-30T04:37:40.114Z,15.54
2018-08-30T04:40:07.338Z,15.58
2018-08-30T04:42:34.486Z,15.67
2018-08-30T04:45:01.703Z,15.76
2018-08-30T04:47:28.922Z,15.80
2018-08-30T04:49:56.051Z,15.99
2018-08-30T04:52:23.220Z,16.15
2018-08-30T04:54:50.328Z,16.27
2018-08-30T04:57:17.492Z,16.33
2018-08-30T04:59:44.814Z,16.36
2018-08-30T05:02:11.989Z,16.37
2018-08-30T05:04:39.133Z,16.32
2018-08-30T05:07:07.169Z,16.20
2018-08-30T05:09:34.361Z,16.11
2018-08-30T05:12:01.541Z,16.07
2018-08-30T05:14:28.736Z,15.91
2018-08-30T05:16:55.906Z,15.87
2018-08-30T05:19:23.036Z,15.83
2018-08-30T05:21:50.225Z,15.82
2018-08-30T05:24:17.454Z,16.04
2018-08-30T05:26:44.656Z,15.78
2018-08-30T05:29:17.676Z,15.81
2018-08-30T05:31:45.063Z,15.68
2018-08-30T05:34:12.807Z,15.70
2018-08-30T05:36:40.130Z,15.88
2018-08-30T05:39:07.945Z,15.94
2018-08-30T05:41:35.076Z,15.94
2018-08-30T05:44:02.554Z,16.00
2018-08-30T05:46:29.765Z,16.09
2018-08-30T05:48:57.024Z,16.16
2018-08-30T05:51:24.182Z,16.29
2018-08-30T05:53:51.379Z,16.37
2018-08-30T05:56:18.501Z,16.45
2018-08-30T05:58:45.711Z,16.55
2018-08-30T06:01:12.998Z,16.67
2018-08-30T06:03:40.216Z,16.79
2018-08-30T06:06:07.810Z,16.96
2018-08-30T06:08:35.056Z,17.01
2018-08-30T06:11:02.340Z,17.17
2018-08-30T06:13:29.608Z,17.29
2018-08-30T06:15:56.773Z,17.37
2018-08-30T06:18:23.971Z,17.37
2018-08-30T06:20:51.299Z,17.40
2018-08-30T06:23:18.879Z,17.43
2018-08-30T06:25:46.141Z,17.42
2018-08-30T06:28:13.339Z,17.41
2018-08-30T06:30:40.484Z,17.49
2018-08-30T06:33:07.789Z,17.53
2018-08-30T06:35:35.172Z,17.58
2018-08-30T06:38:02.408Z,17.69
2018-08-30T06:40:30.593Z,17.77
2018-08-30T06:42:57.785Z,17.91
2018-08-30T06:45:25.429Z,17.97
2018-08-30T06:47:52.601Z,18.15
2018-08-30T06:50:19.885Z,18.21
2018-08-30T06:52:47.168Z,18.31
2018-08-30T06:55:14.266Z,18.41
2018-08-30T06:57:41.416Z,18.56
2018-08-30T07:00:08.583Z,18.57
2018-08-30T07:02:35.767Z,18.51
2018-08-30T07:05:03.016Z,18.64
2018-08-30T07:07:30.146Z,18.83
2018-08-30T07:09:57.354Z,18.91
2018-08-30T07:12:24.628Z,18.96
2018-08-30T07:14:51.995Z,19.02
2018-08-30T07:17:19.131Z,19.19
2018-08-30T07:19:46.614Z,19.33
2018-08-30T07:22:13.733Z,19.51
2018-08-30T07:24:40.941Z,19.50
2018-08-30T07:27:08.184Z,19.47
2018-08-30T07:29:35.324Z,19.40
2018-08-30T07:32:02.495Z,19.37
2018-08-30T07:34:29.742Z,19.44
2018-08-30T07:36:56.951Z,19.60
2018-08-30T07:39:24.230Z,19.37
2018-08-30T07:41:51.405Z,19.35
2018-08-30T07:44:18.631Z,19.17
2018-08-30T07:46:46.744Z,19.01
2018-08-30T07:49:14.060Z,18.90
2018-08-30T07:51:41.340Z,18.68
2018-08-30T07:54:08.481Z,18.55
2018-08-30T07:56:35.661Z,18.42
2018-08-30T07:59:02.897Z,18.34
2018-08-30T08:01:30.099Z,18.32
2018-08-30T08:03:57.323Z,18.38
2018-08-30T08:06:24.476Z,18.46
2018-08-30T08:08:51.588Z,18.38
2018-08-30T08:11:18.795Z,18.38
2018-08-30T08:13:46.020Z,18.44
2018-08-30T08:16:13.270Z,18.45
2018-08-30T08:18:40.467Z,18.46
2018-08-30T08:21:07.627Z,18.40
2018-08-30T08:23:34.732Z,18.48
2018-08-30T08:26:02.019Z,18.42
2018-08-30T08:28:29.259Z,18.40
2018-08-30T08:30:56.367Z,18.46
2018-08-30T08:33:23.520Z,18.38
2018-08-30T08:35:50.659Z,18.40
2018-08-30T08:38:17.843Z,18.29
2018-08-30T08:40:45.149Z,18.32
2018-08-30T08:43:12.307Z,18.32
2018-08-30T08:45:39.416Z,18.47
2018-08-30T08:48:06.719Z,18.52
2018-08-30T08:50:33.954Z,18.58
2018-08-30T08:53:01.183Z,18.60
2018-08-30T08:55:28.344Z,18.51
2018-08-30T08:57:55.462Z,18.52
2018-08-30T09:00:22.617Z,18.43
2018-08-30T09:02:49.860Z,18.29
2018-08-30T09:05:17.042Z,18.19
2018-08-30T09:07:44.352Z,18.10
2018-08-30T09:10:11.501Z,18.05
2018-08-30T09:12:38.735Z,18.08
2018-08-30T09:15:05.943Z,18.04
2018-08-30T09:17:33.191Z,18.11
2018-08-30T09:20:00.379Z,18.20
2018-08-30T09:22:27.514Z,18.19
2018-08-30T09:24:54.707Z,18.21
2018-08-30T09:27:21.876Z,18.21
2018-08-30T09:29:49.080Z,18.14
2018-08-30T09:32:16.261Z,18.10
2018-08-30T09:34:43.571Z,18.03
2018-08-30T09:37:13.118Z,17.94
2018-08-30T09:39:40.362Z,18.01
2018-08-30T09:42:07.564Z,18.00
2018-08-30T09:44:34.675Z,18.09
2018-08-30T09:47:01.863Z,18.07
2018-08-30T09:49:28.981Z,18.04
2018-08-30T09:51:56.181Z,18.04
2018-08-30T09:54:23.422Z,18.05
2018-08-30T09:56:50.620Z,18.06
2018-08-30T09:59:17.734Z,18.04
2018-08-30T10:01:49.918Z,18.09
2018-08-30T10:04:17.706Z,18.10
2018-08-30T10:06:44.895Z,18.06
2018-08-30T10:09:12.118Z,18.02
2018-08-30T10:11:40.065Z,18.06
2018-08-30T10:14:07.176Z,18.08
2018-08-30T10:16:34.480Z,18.06
2018-08-30T10:19:01.667Z,18.13
2018-08-30T10:21:28.939Z,18.37
2018-08-30T10:23:56.145Z,18.42
2018-08-30T10:26:23.324Z,18.55
2018-08-30T10:28:50.577Z,18.64
2018-08-30T10:31:17.888Z,18.67
2018-08-30T10:33:44.993Z,18.61
2018-08-30T10:36:12.080Z,18.70
2018-08-30T10:38:39.231Z,18.77
2018-08-30T10:41:06.483Z,18.88
2018-08-30T10:43:33.742Z,18.87
2018-08-30T10:46:00.896Z,18.90
2018-08-30T10:48:28.082Z,18.92
2018-08-30T10:50:55.189Z,18.84
2018-08-30T10:53:23.209Z,18.84
2018-08-30T10:55:50.456Z,18.83
2018-08-30T10:58:36.605Z,18.77
2018-08-30T11:01:03.838Z,18.70
2018-08-30T11:03:32.200Z,18.70
2018-08-30T11:05:59.483Z,18.73
2018-08-30T11:08:26.612Z,18.87
2018-08-30T11:10:53.737Z,19.14
2018-08-30T11:13:21.000Z,19.29
2018-08-30T11:15:48.179Z,19.36
2018-08-30T11:18:15.376Z,19.22
2018-08-30T11:20:44.587Z,19.12
2018-08-30T11:23:11.695Z,19.00
2018-08-30T11:25:38.832Z,19.13
2018-08-30T11:28:06.064Z,19.13
2018-08-30T11:30:33.279Z,19.17
2018-08-30T11:33:00.407Z,19.06
2018-08-30T11:35:27.608Z,19.01
2018-08-30T11:37:54.705Z,19.06
2018-08-30T11:40:21.865Z,19.07
2018-08-30T11:42:49.499Z,19.04
2018-08-30T11:45:16.631Z,19.00
2018-08-30T11:47:44.338Z,18.94
2018-08-30T11:50:11.543Z,18.93
2018-08-30T11:52:39.919Z,18.95
2018-08-30T11:55:07.114Z,18.87
2018-08-30T11:57:34.296Z,18.85
2018-08-30T12:00:01.485Z,18.88
2018-08-30T12:02:28.684Z,18.96
2018-08-30T12:04:56.029Z,18.97
2018-08-30T12:07:23.259Z,18.99
2018-08-30T12:09:51.483Z,19.00
2018-08-30T12:12:18.864Z,18.99
2018-08-30T12:14:46.005Z,19.19
2018-08-30T12:17:15.254Z,19.34
2018-08-30T12:19:42.583Z,19.49
2018-08-30T12:22:09.710Z,19.51
2018-08-30T12:24:36.831Z,19.60
2018-08-30T12:27:04.175Z,19.54
2018-08-30T12:29:31.355Z,19.53
2018-08-30T12:31:58.764Z,19.53
2018-08-30T12:34:26.303Z,19.65
2018-08-30T12:36:53.471Z,19.74
2018-08-30T12:39:21.044Z,19.94
2018-08-30T12:41:48.513Z,20.19
2018-08-30T12:44:15.683Z,20.12
2018-08-30T12:46:42.833Z,20.13
2018-08-30T12:49:10.245Z,20.11
2018-08-30T12:51:37.464Z,20.02
2018-08-30T12:54:05.016Z,20.02
2018-08-30T12:56:32.569Z,20.08
2018-08-30T12:59:05.513Z,20.02
2018-08-30T13:01:32.778Z,19.79
2018-08-30T13:03:59.978Z,19.72
2018-08-30T13:06:27.309Z,19.82
2018-08-30T13:08:54.645Z,19.96
2018-08-30T13:11:22.403Z,20.04
2018-08-30T13:13:49.398Z,20.16
2018-08-30T13:16:17.104Z,20.13
2018-08-30T13:18:44.321Z,19.91
2018-08-30T13:21:11.536Z,19.79
2018-08-30T13:23:39.557Z,19.70
2018-08-30T13:26:06.929Z,19.63
2018-08-30T13:28:34.568Z,19.51
2018-08-30T13:31:02.385Z,19.57
2018-08-30T13:33:29.499Z,19.50
2018-08-30T13:35:57.896Z,19.61
2018-08-30T13:38:24.866Z,19.56
2018-08-30T13:40:58.003Z,19.68
2018-08-30T13:43:25.869Z,19.69
2018-08-30T13:45:53.177Z,19.74
2018-08-30T13:48:20.528Z,19.80
2018-08-30T13:50:47.677Z,19.84
2018-08-30T13:53:15.050Z,19.72
2018-08-30T13:55:42.340Z,19.50
2018-08-30T13:58:10.133Z,19.46
2018-08-30T14:00:37.901Z,19.43
2018-08-30T14:03:05.712Z,19.37
2018-08-30T14:05:33.041Z,19.37
2018-08-30T14:08:00.477Z,19.44
2018-08-30T14:10:27.870Z,19.40
2018-08-30T14:12:56.212Z,19.41
2018-08-30T14:15:23.694Z,19.48
2018-08-30T14:17:50.741Z,19.50
2018-08-30T14:20:18.257Z,19.54
2018-08-30T14:22:45.529Z,19.62
2018-08-30T14:25:12.777Z,19.64
2018-08-30T14:27:40.045Z,19.94
2018-08-30T14:30:07.402Z,20.00
2018-08-30T14:32:34.670Z,20.13
2018-08-30T14:35:03.065Z,20.19
2018-08-30T14:37:30.285Z,20.21
2018-08-30T14:39:57.463Z,20.28
2018-08-30T14:42:24.705Z,20.29
2018-08-30T14:44:51.973Z,20.26
2018-08-30T14:47:19.739Z,20.31
2018-08-30T14:49:46.892Z,20.36
2018-08-30T14:52:14.059Z,20.48
2018-08-30T14:54:41.233Z,20.70
2018-08-30T14:57:08.970Z,20.93
2018-08-30T14:59:36.269Z,20.95
2018-08-30T15:02:03.376Z,21.00
2018-08-30T15:04:30.659Z,20.98
2018-08-30T15:06:57.899Z,20.79
2018-08-30T15:09:25.188Z,20.67
2018-08-30T15:11:52.995Z,20.54
2018-08-30T15:14:20.213Z,20.39
2018-08-30T15:16:47.344Z,20.36
2018-08-30T15:19:14.603Z,20.27
2018-08-30T15:21:41.840Z,20.19
2018-08-30T15:24:09.988Z,20.14
2018-08-30T15:26:37.756Z,20.03
2018-08-30T15:29:05.123Z,20.00
2018-08-30T15:31:32.369Z,20.02
2018-08-30T15:33:59.812Z,20.25
2018-08-30T15:36:27.095Z,20.30
2018-08-30T15:38:54.251Z,20.43
2018-08-30T15:41:21.642Z,20.45
2018-08-30T15:43:48.753Z,20.40
2018-08-30T15:46:16.021Z,20.42
2018-08-30T15:48:43.470Z,20.52
2018-08-30T15:51:10.574Z,20.57
2018-08-30T15:53:38.482Z,20.62
2018-08-30T15:56:05.817Z,20.73
2018-08-30T15:58:33.112Z,20.98
2018-08-30T16:01:00.497Z,21.12
2018-08-30T16:03:28.228Z,21.24
2018-08-30T16:05:55.461Z,21.24
2018-08-30T16:08:22.591Z,20.95
2018-08-30T16:10:50.183Z,20.72
2018-08-30T16:13:17.789Z,20.68
2018-08-30T16:15:46.979Z,20.51
2018-08-30T16:18:14.209Z,20.33
2018-08-30T16:20:41.445Z,19.98
2018-08-30T16:23:25.829Z,19.57
2018-08-30T16:25:52.810Z,19.30
2018-08-30T16:28:20.610Z,19.07
2018-08-30T16:30:48.183Z,18.99
2018-08-30T16:33:15.449Z,18.93
2018-08-30T16:35:42.756Z,18.87
2018-08-30T16:38:10.096Z,18.87
2018-08-30T16:40:37.869Z,18.87
2018-08-30T16:43:05.401Z,18.90
2018-08-30T16:45:32.698Z,18.97
2018-08-30T16:48:00.056Z,18.96
2018-08-30T16:50:27.312Z,18.92
2018-08-30T16:52:54.529Z,18.85
2018-08-30T16:55:21.764Z,18.85
2018-08-30T16:57:48.892Z,18.80
2018-08-30T17:00:16.285Z,18.86
2018-08-30T17:02:43.495Z,18.74
2018-08-30T17:05:10.733Z,18.90
2018-08-30T17:07:38.289Z,18.68
2018-08-30T17:10:05.764Z,18.70
2018-08-30T17:12:33.593Z,18.67
2018-08-30T17:15:00.800Z,18.62
2018-08-30T17:17:28.517Z,18.63
2018-08-30T17:19:55.742Z,18.57
2018-08-30T17:22:22.965Z,18.35
2018-08-30T17:24:50.460Z,18.22
2018-08-30T17:27:17.924Z,18.05
2018-08-30T17:29:45.175Z,17.88
2018-08-30T17:32:12.346Z,17.75
2018-08-30T17:34:39.672Z,17.67
2018-08-30T17:37:07.529Z,17.61
2018-08-30T17:39:34.767Z,17.54
2018-08-30T17:42:02.081Z,17.57
2018-08-30T17:44:29.191Z,17.45
2018-08-30T17:46:56.494Z,17.29
2018-08-30T17:49:23.730Z,17.12
2018-08-30T17:51:50.929Z,17.04
2018-08-30T17:54:18.061Z,16.85
2018-08-30T17:56:45.188Z,16.85
2018-08-30T17:59:12.357Z,16.82
2018-08-30T18:01:39.667Z,16.81
2018-08-30T18:04:06.820Z,16.78
2018-08-30T18:06:33.988Z,16.76
2018-08-30T18:09:01.198Z,16.74
2018-08-30T18:11:28.320Z,16.68
2018-08-30T18:13:55.875Z,16.70
2018-08-30T18:16:23.122Z,16.68
2018-08-30T18:18:50.462Z,16.71
2018-08-30T18:21:21.253Z,16.64
2018-08-30T18:23:48.556Z,16.62
2018-08-30T18:26:16.285Z,16.59
2018-08-30T18:28:43.547Z,16.64
2018-08-30T18:31:10.972Z,16.58
2018-08-30T18:33:38.263Z,16.56
2018-08-30T18:36:05.672Z,16.53
2018-08-30T18:38:33.077Z,16.53
2018-08-30T18:41:01.443Z,16.46
2018-08-30T18:43:28.715Z,16.42
2018-08-30T18:45:56.025Z,16.40
2018-08-30T18:48:23.199Z,16.40
2018-08-30T18:50:50.847Z,16.44
2018-08-30T18:53:18.052Z,16.46
2018-08-30T18:55:45.198Z,16.44
2018-08-30T18:58:13.961Z,16.45
2018-08-30T19:00:41.404Z,16.45
2018-08-30T19:03:08.877Z,16.36
2018-08-30T19:05:36.354Z,16.39
2018-08-30T19:08:03.607Z,16.41
2018-08-30T19:10:30.734Z,16.32
2018-08-30T19:12:57.994Z,16.33
2018-08-30T19:15:32.554Z,16.31
2018-08-30T19:18:05.477Z,16.30
2018-08-30T19:20:32.741Z,16.27
2018-08-30T19:22:59.845Z,16.33
2018-08-30T19:25:28.656Z,16.24
2018-08-30T19:27:55.882Z,16.26
2018-08-30T19:30:25.409Z,16.27
2018-08-30T19:32:58.216Z,16.35
2018-08-30T19:35:31.143Z,16.27
2018-08-30T19:37:58.420Z,16.34
2018-08-30T19:40:31.313Z,16.26
2018-08-30T19:42:59.309Z,16.24
2018-08-30T19:45:26.904Z,16.22
2018-08-30T19:47:54.543Z,16.26
2018-08-30T19:50:21.843Z,16.24
2018-08-30T19:52:48.974Z,16.20
2018-08-30T19:55:16.224Z,16.27
2018-08-30T19:57:43.412Z,16.21
2018-08-30T20:00:10.521Z,16.31
2018-08-30T20:02:39.259Z,16.22
2018-08-30T20:05:06.711Z,16.23
2018-08-30T20:07:33.949Z,16.14
2018-08-30T20:10:01.112Z,16.18
2018-08-30T20:12:28.258Z,16.14
2018-08-30T20:14:55.533Z,16.16
2018-08-30T20:17:22.686Z,16.13
2018-08-30T20:19:49.891Z,16.12
2018-08-30T20:22:17.081Z,16.07
2018-08-30T20:24:44.385Z,16.04
2018-08-30T20:27:11.655Z,16.05
2018-08-30T20:29:38.787Z,16.01
2018-08-30T20:32:06.109Z,16.08
2018-08-30T20:34:33.429Z,16.03
2018-08-30T20:37:00.541Z,16.04
2018-08-30T20:39:28.661Z,15.95
2018-08-30T20:41:56.089Z,15.94
2018-08-30T20:44:23.204Z,15.91
2018-08-30T20:46:50.673Z,15.91
2018-08-30T20:49:17.793Z,15.91
2018-08-30T20:51:45.029Z,15.92
2018-08-30T20:54:12.267Z,15.99
2018-08-30T20:56:39.592Z,15.88
2018-08-30T20:59:06.807Z,15.88
2018-08-30T21:01:33.931Z,15.91
2018-08-30T21:04:01.251Z,15.92
2018-08-30T21:06:28.786Z,15.85
2018-08-30T21:08:55.946Z,15.89
2018-08-30T21:11:23.141Z,15.87
2018-08-30T21:13:50.247Z,15.88
2018-08-30T21:16:17.416Z,15.94
2018-08-30T21:18:44.644Z,15.89
2018-08-30T21:21:11.859Z,15.96
2018-08-30T21:23:39.059Z,15.93
2018-08-30T21:26:06.584Z,15.91
2018-08-30T21:28:34.153Z,15.89
2018-08-30T21:31:01.510Z,16.01
2018-08-30T21:33:28.661Z,16.00
2018-08-30T21:35:55.853Z,16.01
2018-08-30T21:38:22.956Z,16.07
2018-08-30T21:40:50.407Z,16.00
2018-08-30T21:43:17.560Z,15.95
2018-08-30T21:45:44.705Z,16.04
2018-08-30T21:48:11.888Z,15.97
2018-08-30T21:50:39.241Z,15.88
2018-08-30T21:53:06.469Z,15.92
2018-08-30T21:55:33.880Z,15.91
2018-08-30T21:58:01.017Z,15.92
2018-08-30T22:00:29.069Z,15.92
2018-08-30T22:02:56.302Z,15.76
2018-08-30T22:05:23.576Z,15.71
2018-08-30T22:07:50.732Z,15.72
2018-08-30T22:10:17.924Z,15.74
2018-08-30T22:12:45.028Z,15.76
2018-08-30T22:15:12.212Z,15.62
2018-08-30T22:17:39.844Z,15.63
2018-08-30T22:20:07.031Z,15.65
2018-08-30T22:22:34.199Z,15.53
2018-08-30T22:25:01.597Z,15.48
2018-08-30T22:27:28.751Z,15.40
2018-08-30T22:29:55.975Z,15.50
2018-08-30T22:32:23.185Z,15.36
2018-08-30T22:34:50.390Z,15.27
2018-08-30T22:37:17.545Z,15.28
2018-08-30T22:39:44.845Z,15.24
2018-08-30T22:42:12.430Z,15.27
2018-08-30T22:44:39.591Z,15.25
2018-08-30T22:47:06.818Z,15.26
2018-08-30T22:49:35.239Z,15.26
2018-08-30T22:52:02.413Z,15.23
2018-08-30T22:54:29.818Z,15.27
2018-08-30T22:56:57.051Z,15.26
2018-08-30T22:59:24.290Z,15.23
2018-08-30T23:01:51.572Z,15.17
2018-08-30T23:04:18.708Z,15.13
2018-08-30T23:06:45.947Z,15.09
2018-08-30T23:09:13.388Z,15.09
2018-08-30T23:11:40.545Z,15.06
2018-08-30T23:14:08.025Z,15.08
2018-08-30T23:16:35.377Z,15.09
2018-08-30T23:19:02.712Z,15.02
2018-08-30T23:21:29.987Z,14.94
2018-08-30T23:23:57.245Z,14.84
2018-08-30T23:26:24.459Z,14.83
2018-08-30T23:28:51.724Z,14.83
2018-08-30T23:31:18.972Z,14.81
2018-08-30T23:33:46.212Z,14.74
2018-08-30T23:36:13.765Z,14.69
2018-08-30T23:38:40.991Z,14.78
2018-08-30T23:41:08.231Z,14.74
2018-08-30T23:43:35.570Z,14.65
2018-08-30T23:46:02.788Z,14.71
2018-08-30T23:48:29.977Z,14.52
2018-08-30T23:50:57.212Z,14.51
2018-08-30T23:53:24.781Z,14.43
2018-08-30T23:55:52.025Z,14.43
2018-08-30T23:58:30.566Z,14.35
